sensor_id;sensor_type;location;lat;lon;timestamp;noise_LAeq;noise_LA_min;noise_LA_max;noise_LA01;noise_LA95
76767;Laerm;65707;52.362;6.588;2023-08-08T00:01:45;39.51;33.91;46.38;;
76767;Laerm;65707;52.362;6.588;2023-08-08T00:04:12;39.47;33.45;49.09;;
76767;Laerm;65707;52.362;6.588;2023-08-08T00:06:38;38.98;33.26;44.45;;
76767;Laerm;65707;52.362;6.588;2023-08-08T00:09:05;39.38;32.73;49.55;;
76767;Laerm;65707;52.362;6.588;2023-08-08T00:11:32;39.25;32.67;49.78;;
76767;Laerm;65707;52.362;6.588;2023-08-08T00:13:59;40.15;32.64;61.97;;
76767;Laerm;65707;52.362;6.588;2023-08-08T00:16:26;39.13;33.73;44.50;;
76767;Laerm;65707;52.362;6.588;2023-08-08T00:18:54;41.05;33.20;49.01;;
76767;Laerm;65707;52.362;6.588;2023-08-08T00:21:21;70.80;32.19;86.26;;
76767;Laerm;65707;52.362;6.588;2023-08-08T00:23:48;39.06;31.71;51.15;;
76767;Laerm;65707;52.362;6.588;2023-08-08T00:26:15;39.15;34.18;49.56;;
76767;Laerm;65707;52.362;6.588;2023-08-08T00:28:41;40.31;33.50;51.55;;
76767;Laerm;65707;52.362;6.588;2023-08-08T00:31:08;39.35;32.49;45.46;;
76767;Laerm;65707;52.362;6.588;2023-08-08T00:33:35;39.37;34.12;50.84;;
76767;Laerm;65707;52.362;6.588;2023-08-08T00:36:03;72.97;34.74;87.76;;
76767;Laerm;65707;52.362;6.588;2023-08-08T00:38:30;39.81;32.07;50.82;;
76767;Laerm;65707;52.362;6.588;2023-08-08T00:40:57;39.16;33.22;45.21;;
76767;Laerm;65707;52.362;6.588;2023-08-08T00:43:24;41.20;33.77;62.63;;
76767;Laerm;65707;52.362;6.588;2023-08-08T00:45:50;39.07;33.45;47.39;;
76767;Laerm;65707;52.362;6.588;2023-08-08T00:48:18;39.01;32.29;46.35;;
76767;Laerm;65707;52.362;6.588;2023-08-08T00:50:45;39.01;32.41;52.70;;
76767;Laerm;65707;52.362;6.588;2023-08-08T00:53:15;39.43;32.86;56.64;;
76767;Laerm;65707;52.362;6.588;2023-08-08T00:55:41;38.98;32.48;49.56;;
76767;Laerm;65707;52.362;6.588;2023-08-08T00:58:09;39.45;32.75;53.76;;
76767;Laerm;65707;52.362;6.588;2023-08-08T01:00:36;40.31;33.76;50.34;;
76767;Laerm;65707;52.362;6.588;2023-08-08T01:03:03;70.78;33.01;84.88;;
76767;Laerm;65707;52.362;6.588;2023-08-08T01:05:39;39.21;33.56;54.62;;
76767;Laerm;65707;52.362;6.588;2023-08-08T01:08:08;38.91;32.51;49.45;;
76767;Laerm;65707;52.362;6.588;2023-08-08T01:10:39;39.06;33.18;51.02;;
76767;Laerm;65707;52.362;6.588;2023-08-08T01:13:13;39.49;31.96;54.78;;
76767;Laerm;65707;52.362;6.588;2023-08-08T01:15:42;38.87;32.58;44.84;;
76767;Laerm;65707;52.362;6.588;2023-08-08T01:18:11;40.99;32.26;64.18;;
76767;Laerm;65707;52.362;6.588;2023-08-08T01:20:41;39.19;33.05;46.50;;
76767;Laerm;65707;52.362;6.588;2023-08-08T01:23:15;39.20;33.26;47.55;;
76767;Laerm;65707;52.362;6.588;2023-08-08T01:25:45;39.63;32.68;58.72;;
76767;Laerm;65707;52.362;6.588;2023-08-08T01:28:13;40.09;33.34;61.07;;
76767;Laerm;65707;52.362;6.588;2023-08-08T01:30:40;39.00;32.24;45.54;;
76767;Laerm;65707;52.362;6.588;2023-08-08T01:33:08;38.99;33.44;44.64;;
76767;Laerm;65707;52.362;6.588;2023-08-08T01:35:39;39.38;33.48;57.50;;
76767;Laerm;65707;52.362;6.588;2023-08-08T01:38:19;39.05;33.00;45.80;;
76767;Laerm;65707;52.362;6.588;2023-08-08T01:40:49;39.64;32.51;57.12;;
76767;Laerm;65707;52.362;6.588;2023-08-08T01:43:17;39.88;33.58;54.70;;
76767;Laerm;65707;52.362;6.588;2023-08-08T01:45:45;39.26;33.02;52.14;;
76767;Laerm;65707;52.362;6.588;2023-08-08T01:48:12;39.20;32.76;50.51;;
76767;Laerm;65707;52.362;6.588;2023-08-08T01:50:38;39.66;33.61;59.05;;
76767;Laerm;65707;52.362;6.588;2023-08-08T01:53:05;39.95;32.86;62.04;;
76767;Laerm;65707;52.362;6.588;2023-08-08T01:55:32;39.24;32.84;49.70;;
76767;Laerm;65707;52.362;6.588;2023-08-08T01:58:00;39.43;33.81;53.43;;
76767;Laerm;65707;52.362;6.588;2023-08-08T02:00:27;39.44;33.03;52.90;;
76767;Laerm;65707;52.362;6.588;2023-08-08T02:02:54;39.01;33.54;53.96;;
76767;Laerm;65707;52.362;6.588;2023-08-08T02:05:21;39.07;32.38;53.29;;
76767;Laerm;65707;52.362;6.588;2023-08-08T02:07:48;40.26;35.42;50.06;;
76767;Laerm;65707;52.362;6.588;2023-08-08T02:10:14;39.70;36.03;49.72;;
76767;Laerm;65707;52.362;6.588;2023-08-08T02:12:41;38.76;32.91;48.04;;
76767;Laerm;65707;52.362;6.588;2023-08-08T02:15:09;39.68;32.12;53.97;;
76767;Laerm;65707;52.362;6.588;2023-08-08T02:17:38;42.48;33.88;59.96;;
76767;Laerm;65707;52.362;6.588;2023-08-08T02:20:06;42.84;36.24;60.05;;
76767;Laerm;65707;52.362;6.588;2023-08-08T02:22:33;40.23;34.14;52.23;;
76767;Laerm;65707;52.362;6.588;2023-08-08T02:25:00;40.65;33.44;61.84;;
76767;Laerm;65707;52.362;6.588;2023-08-08T02:27:27;42.42;34.59;68.50;;
76767;Laerm;65707;52.362;6.588;2023-08-08T02:29:53;40.13;34.88;53.36;;
76767;Laerm;65707;52.362;6.588;2023-08-08T02:32:22;42.47;35.63;58.97;;
76767;Laerm;65707;52.362;6.588;2023-08-08T02:34:48;39.72;35.03;50.25;;
76767;Laerm;65707;52.362;6.588;2023-08-08T02:37:15;39.09;33.22;48.84;;
76767;Laerm;65707;52.362;6.588;2023-08-08T02:39:44;41.18;35.73;54.65;;
76767;Laerm;65707;52.362;6.588;2023-08-08T02:42:10;41.09;34.60;56.41;;
76767;Laerm;65707;52.362;6.588;2023-08-08T02:44:37;39.65;35.80;49.02;;
76767;Laerm;65707;52.362;6.588;2023-08-08T02:47:04;39.29;34.19;44.77;;
76767;Laerm;65707;52.362;6.588;2023-08-08T02:49:32;39.19;34.19;51.03;;
76767;Laerm;65707;52.362;6.588;2023-08-08T02:52:00;39.70;34.39;51.21;;
76767;Laerm;65707;52.362;6.588;2023-08-08T02:54:26;40.22;34.63;59.93;;
76767;Laerm;65707;52.362;6.588;2023-08-08T02:56:54;39.82;33.57;55.95;;
76767;Laerm;65707;52.362;6.588;2023-08-08T02:59:20;39.90;34.89;53.52;;
76767;Laerm;65707;52.362;6.588;2023-08-08T03:01:47;39.27;32.07;49.16;;
76767;Laerm;65707;52.362;6.588;2023-08-08T03:04:14;40.42;34.82;52.94;;
76767;Laerm;65707;52.362;6.588;2023-08-08T03:06:42;40.56;35.77;54.12;;
76767;Laerm;65707;52.362;6.588;2023-08-08T03:09:09;40.71;36.21;54.36;;
76767;Laerm;65707;52.362;6.588;2023-08-08T03:11:36;57.93;35.29;77.71;;
76767;Laerm;65707;52.362;6.588;2023-08-08T03:14:07;40.76;36.11;52.98;;
76767;Laerm;65707;52.362;6.588;2023-08-08T03:16:34;39.19;34.78;47.50;;
76767;Laerm;65707;52.362;6.588;2023-08-08T03:19:01;39.95;35.31;48.08;;
76767;Laerm;65707;52.362;6.588;2023-08-08T03:21:27;40.09;33.70;58.14;;
76767;Laerm;65707;52.362;6.588;2023-08-08T03:23:56;40.70;35.82;55.17;;
76767;Laerm;65707;52.362;6.588;2023-08-08T03:26:24;41.41;35.74;56.69;;
76767;Laerm;65707;52.362;6.588;2023-08-08T03:28:51;40.35;36.16;49.80;;
76767;Laerm;65707;52.362;6.588;2023-08-08T03:31:19;61.86;36.09;81.91;;
76767;Laerm;65707;52.362;6.588;2023-08-08T03:33:46;41.86;38.20;47.95;;
76767;Laerm;65707;52.362;6.588;2023-08-08T03:36:13;43.50;36.48;58.55;;
76767;Laerm;65707;52.362;6.588;2023-08-08T03:38:40;41.01;35.39;53.16;;
76767;Laerm;65707;52.362;6.588;2023-08-08T03:41:11;62.66;37.46;81.86;;
76767;Laerm;65707;52.362;6.588;2023-08-08T03:43:39;44.07;37.25;66.86;;
76767;Laerm;65707;52.362;6.588;2023-08-08T03:46:06;40.35;35.65;44.82;;
76767;Laerm;65707;52.362;6.588;2023-08-08T03:48:33;42.57;37.66;63.05;;
76767;Laerm;65707;52.362;6.588;2023-08-08T03:51:00;41.32;36.51;58.35;;
76767;Laerm;65707;52.362;6.588;2023-08-08T03:53:26;54.24;37.18;73.84;;
76767;Laerm;65707;52.362;6.588;2023-08-08T03:55:53;45.88;37.50;75.63;;
76767;Laerm;65707;52.362;6.588;2023-08-08T03:58:21;42.49;36.58;58.08;;
76767;Laerm;65707;52.362;6.588;2023-08-08T04:00:48;56.04;37.32;74.31;;
76767;Laerm;65707;52.362;6.588;2023-08-08T04:03:16;42.17;36.49;53.45;;
76767;Laerm;65707;52.362;6.588;2023-08-08T04:05:44;44.40;39.05;53.97;;
76767;Laerm;65707;52.362;6.588;2023-08-08T04:08:12;56.31;38.18;76.18;;
76767;Laerm;65707;52.362;6.588;2023-08-08T04:10:38;50.27;38.88;69.99;;
76767;Laerm;65707;52.362;6.588;2023-08-08T04:13:05;47.31;38.08;68.27;;
76767;Laerm;65707;52.362;6.588;2023-08-08T04:15:34;60.52;37.32;76.66;;
76767;Laerm;65707;52.362;6.588;2023-08-08T04:18:01;49.78;38.40;68.18;;
76767;Laerm;65707;52.362;6.588;2023-08-08T04:20:27;47.00;38.48;64.26;;
76767;Laerm;65707;52.362;6.588;2023-08-08T04:22:54;42.98;38.42;59.96;;
76767;Laerm;65707;52.362;6.588;2023-08-08T04:25:21;54.00;38.38;73.30;;
76767;Laerm;65707;52.362;6.588;2023-08-08T04:27:48;44.22;39.08;57.08;;
76767;Laerm;65707;52.362;6.588;2023-08-08T04:30:15;43.47;39.00;58.33;;
76767;Laerm;65707;52.362;6.588;2023-08-08T04:32:43;55.14;39.17;72.85;;
76767;Laerm;65707;52.362;6.588;2023-08-08T04:35:10;44.16;39.17;57.51;;
76767;Laerm;65707;52.362;6.588;2023-08-08T04:37:37;45.46;39.86;59.37;;
76767;Laerm;65707;52.362;6.588;2023-08-08T04:40:05;45.61;39.74;63.06;;
76767;Laerm;65707;52.362;6.588;2023-08-08T04:42:33;61.78;40.13;79.68;;
76767;Laerm;65707;52.362;6.588;2023-08-08T04:45:00;71.77;41.29;83.10;;
76767;Laerm;65707;52.362;6.588;2023-08-08T04:47:27;45.05;40.75;60.95;;
76767;Laerm;65707;52.362;6.588;2023-08-08T04:49:55;64.97;38.93;82.72;;
76767;Laerm;65707;52.362;6.588;2023-08-08T04:52:22;43.62;39.93;51.66;;
76767;Laerm;65707;52.362;6.588;2023-08-08T04:54:49;44.34;39.14;56.78;;
76767;Laerm;65707;52.362;6.588;2023-08-08T04:57:16;47.88;40.40;67.17;;
76767;Laerm;65707;52.362;6.588;2023-08-08T04:59:43;53.75;40.07;71.97;;
76767;Laerm;65707;52.362;6.588;2023-08-08T05:02:09;50.36;40.29;69.41;;
76767;Laerm;65707;52.362;6.588;2023-08-08T05:04:36;44.37;39.30;57.14;;
76767;Laerm;65707;52.362;6.588;2023-08-08T05:07:04;54.45;40.05;73.59;;
76767;Laerm;65707;52.362;6.588;2023-08-08T05:09:31;56.69;40.48;76.06;;
76767;Laerm;65707;52.362;6.588;2023-08-08T05:11:58;60.71;40.99;77.76;;
76767;Laerm;65707;52.362;6.588;2023-08-08T05:14:25;46.01;40.61;58.83;;
76767;Laerm;65707;52.362;6.588;2023-08-08T05:16:51;45.06;40.96;54.45;;
76767;Laerm;65707;52.362;6.588;2023-08-08T05:19:18;61.16;40.67;80.30;;
76767;Laerm;65707;52.362;6.588;2023-08-08T05:21:45;45.28;39.99;59.15;;
76767;Laerm;65707;52.362;6.588;2023-08-08T05:24:13;56.22;40.79;74.80;;
76767;Laerm;65707;52.362;6.588;2023-08-08T05:26:40;46.47;40.08;65.09;;
76767;Laerm;65707;52.362;6.588;2023-08-08T05:29:07;53.55;40.05;69.49;;
76767;Laerm;65707;52.362;6.588;2023-08-08T05:31:33;55.56;41.16;71.79;;
76767;Laerm;65707;52.362;6.588;2023-08-08T05:34:00;44.66;40.58;55.05;;
76767;Laerm;65707;52.362;6.588;2023-08-08T05:36:27;46.59;40.66;56.73;;
76767;Laerm;65707;52.362;6.588;2023-08-08T05:38:54;57.23;41.20;76.87;;
76767;Laerm;65707;52.362;6.588;2023-08-08T05:41:22;60.81;41.03;79.54;;
76767;Laerm;65707;52.362;6.588;2023-08-08T05:43:49;45.14;40.72;57.74;;
76767;Laerm;65707;52.362;6.588;2023-08-08T05:46:15;45.80;40.37;55.23;;
76767;Laerm;65707;52.362;6.588;2023-08-08T05:48:42;45.27;40.95;53.17;;
76767;Laerm;65707;52.362;6.588;2023-08-08T05:51:09;60.54;40.37;80.75;;
76767;Laerm;65707;52.362;6.588;2023-08-08T05:53:36;45.65;40.19;55.91;;
76767;Laerm;65707;52.362;6.588;2023-08-08T05:56:03;45.65;41.14;59.16;;
76767;Laerm;65707;52.362;6.588;2023-08-08T05:58:32;44.83;40.25;54.35;;
76767;Laerm;65707;52.362;6.588;2023-08-08T06:00:58;57.08;40.78;73.27;;
76767;Laerm;65707;52.362;6.588;2023-08-08T06:03:25;46.16;40.83;54.69;;
76767;Laerm;65707;52.362;6.588;2023-08-08T06:05:53;45.52;40.47;56.45;;
76767;Laerm;65707;52.362;6.588;2023-08-08T06:08:19;54.45;40.05;71.09;;
76767;Laerm;65707;52.362;6.588;2023-08-08T06:10:46;62.18;41.05;80.47;;
76767;Laerm;65707;52.362;6.588;2023-08-08T06:13:13;45.61;39.43;57.35;;
76767;Laerm;65707;52.362;6.588;2023-08-08T06:15:41;47.80;41.03;67.31;;
76767;Laerm;65707;52.362;6.588;2023-08-08T06:18:08;45.60;39.72;64.66;;
76767;Laerm;65707;52.362;6.588;2023-08-08T06:20:35;57.89;40.34;79.92;;
76767;Laerm;65707;52.362;6.588;2023-08-08T06:23:02;57.89;40.41;83.39;;
76767;Laerm;65707;52.362;6.588;2023-08-08T06:25:28;56.52;41.50;74.53;;
76767;Laerm;65707;52.362;6.588;2023-08-08T06:27:55;44.78;38.81;57.77;;
76767;Laerm;65707;52.362;6.588;2023-08-08T06:30:22;55.89;40.19;71.81;;
76767;Laerm;65707;52.362;6.588;2023-08-08T06:32:51;46.05;40.39;66.68;;
76767;Laerm;65707;52.362;6.588;2023-08-08T06:35:17;45.69;39.71;64.95;;
76767;Laerm;65707;52.362;6.588;2023-08-08T06:37:44;56.11;39.76;76.10;;
76767;Laerm;65707;52.362;6.588;2023-08-08T06:40:12;58.31;40.56;78.53;;
76767;Laerm;65707;52.362;6.588;2023-08-08T06:42:39;56.25;39.75;77.48;;
76767;Laerm;65707;52.362;6.588;2023-08-08T06:45:07;64.70;40.05;83.31;;
76767;Laerm;65707;52.362;6.588;2023-08-08T06:47:36;67.36;40.90;79.31;;
76767;Laerm;65707;52.362;6.588;2023-08-08T06:50:06;60.57;40.09;81.40;;
76767;Laerm;65707;52.362;6.588;2023-08-08T06:52:33;57.82;40.50;78.62;;
76767;Laerm;65707;52.362;6.588;2023-08-08T06:55:01;47.43;41.08;62.72;;
76767;Laerm;65707;52.362;6.588;2023-08-08T06:57:29;49.05;39.87;66.62;;
76767;Laerm;65707;52.362;6.588;2023-08-08T06:59:56;52.88;39.94;71.16;;
76767;Laerm;65707;52.362;6.588;2023-08-08T07:02:23;53.88;39.07;70.80;;
76767;Laerm;65707;52.362;6.588;2023-08-08T07:04:50;43.99;37.87;55.87;;
76767;Laerm;65707;52.362;6.588;2023-08-08T07:07:18;43.76;37.69;57.29;;
76767;Laerm;65707;52.362;6.588;2023-08-08T07:09:44;43.21;37.69;52.35;;
76767;Laerm;65707;52.362;6.588;2023-08-08T07:12:11;59.63;38.22;77.43;;
76767;Laerm;65707;52.362;6.588;2023-08-08T07:14:38;44.63;40.11;54.13;;
76767;Laerm;65707;52.362;6.588;2023-08-08T07:17:05;45.75;40.36;63.69;;
76767;Laerm;65707;52.362;6.588;2023-08-08T07:19:32;68.29;41.17;81.63;;
76767;Laerm;65707;52.362;6.588;2023-08-08T07:21:58;47.17;39.62;65.90;;
76767;Laerm;65707;52.362;6.588;2023-08-08T07:24:27;58.06;40.67;78.88;;
76767;Laerm;65707;52.362;6.588;2023-08-08T07:26:54;50.64;41.77;70.83;;
76767;Laerm;65707;52.362;6.588;2023-08-08T07:29:21;50.71;42.59;71.81;;
76767;Laerm;65707;52.362;6.588;2023-08-08T07:31:47;56.06;43.57;72.38;;
76767;Laerm;65707;52.362;6.588;2023-08-08T07:34:14;62.44;40.33;78.60;;
76767;Laerm;65707;52.362;6.588;2023-08-08T07:36:41;47.31;41.12;64.52;;
76767;Laerm;65707;52.362;6.588;2023-08-08T07:39:08;55.58;41.52;75.24;;
76767;Laerm;65707;52.362;6.588;2023-08-08T07:41:36;53.42;40.56;75.69;;
76767;Laerm;65707;52.362;6.588;2023-08-08T07:44:05;59.31;42.06;76.84;;
76767;Laerm;65707;52.362;6.588;2023-08-08T07:46:32;69.98;40.64;83.41;;
76767;Laerm;65707;52.362;6.588;2023-08-08T07:48:59;49.91;42.21;71.88;;
76767;Laerm;65707;52.362;6.588;2023-08-08T07:51:29;62.37;41.98;81.30;;
76767;Laerm;65707;52.362;6.588;2023-08-08T07:53:56;45.31;40.08;66.72;;
76767;Laerm;65707;52.362;6.588;2023-08-08T07:56:23;56.45;41.14;76.26;;
76767;Laerm;65707;52.362;6.588;2023-08-08T07:58:52;52.77;41.08;71.96;;
76767;Laerm;65707;52.362;6.588;2023-08-08T08:01:19;56.55;42.97;81.08;;
76767;Laerm;65707;52.362;6.588;2023-08-08T08:03:45;54.37;43.21;75.18;;
76767;Laerm;65707;52.362;6.588;2023-08-08T08:06:12;49.92;41.65;71.69;;
76767;Laerm;65707;52.362;6.588;2023-08-08T08:08:39;58.48;40.95;80.87;;
76767;Laerm;65707;52.362;6.588;2023-08-08T08:11:06;59.96;40.66;78.34;;
76767;Laerm;65707;52.362;6.588;2023-08-08T08:13:33;48.42;41.72;58.70;;
76767;Laerm;65707;52.362;6.588;2023-08-08T08:16:01;45.96;41.47;58.76;;
76767;Laerm;65707;52.362;6.588;2023-08-08T08:18:27;50.47;41.12;71.89;;
76767;Laerm;65707;52.362;6.588;2023-08-08T08:20:55;60.11;39.89;81.51;;
76767;Laerm;65707;52.362;6.588;2023-08-08T08:23:22;46.25;41.46;63.99;;
76767;Laerm;65707;52.362;6.588;2023-08-08T08:25:49;51.91;40.65;74.24;;
76767;Laerm;65707;52.362;6.588;2023-08-08T08:28:16;54.95;43.26;77.77;;
76767;Laerm;65707;52.362;6.588;2023-08-08T08:30:43;56.42;42.82;71.72;;
76767;Laerm;65707;52.362;6.588;2023-08-08T08:33:11;48.56;41.25;66.84;;
76767;Laerm;65707;52.362;6.588;2023-08-08T08:35:38;47.94;40.95;70.89;;
76767;Laerm;65707;52.362;6.588;2023-08-08T08:38:04;55.56;42.92;76.18;;
76767;Laerm;65707;52.362;6.588;2023-08-08T08:40:36;60.75;41.58;79.47;;
76767;Laerm;65707;52.362;6.588;2023-08-08T08:43:06;64.53;41.40;83.55;;
76767;Laerm;65707;52.362;6.588;2023-08-08T08:45:37;47.06;41.70;64.03;;
76767;Laerm;65707;52.362;6.588;2023-08-08T08:48:09;51.26;42.60;76.76;;
76767;Laerm;65707;52.362;6.588;2023-08-08T08:50:39;63.86;42.22;82.70;;
76767;Laerm;65707;52.362;6.588;2023-08-08T08:53:07;63.25;44.81;82.20;;
76767;Laerm;65707;52.362;6.588;2023-08-08T08:55:34;48.45;43.03;63.15;;
76767;Laerm;65707;52.362;6.588;2023-08-08T08:58:01;48.28;42.03;68.85;;
76767;Laerm;65707;52.362;6.588;2023-08-08T09:00:30;56.22;44.50;79.48;;
76767;Laerm;65707;52.362;6.588;2023-08-08T09:02:58;53.72;41.25;78.76;;
76767;Laerm;65707;52.362;6.588;2023-08-08T09:05:25;49.81;41.83;70.64;;
76767;Laerm;65707;52.362;6.588;2023-08-08T09:07:54;60.55;42.45;83.01;;
76767;Laerm;65707;52.362;6.588;2023-08-08T09:10:21;63.29;44.95;81.03;;
76767;Laerm;65707;52.362;6.588;2023-08-08T09:12:48;46.33;41.82;58.36;;
76767;Laerm;65707;52.362;6.588;2023-08-08T09:15:15;47.53;39.50;70.10;;
76767;Laerm;65707;52.362;6.588;2023-08-08T09:17:43;70.38;41.18;83.30;;
76767;Laerm;65707;52.362;6.588;2023-08-08T09:20:13;57.67;41.60;80.55;;
76767;Laerm;65707;52.362;6.588;2023-08-08T09:22:39;46.09;41.19;65.56;;
76767;Laerm;65707;52.362;6.588;2023-08-08T09:25:08;53.89;41.76;73.54;;
76767;Laerm;65707;52.362;6.588;2023-08-08T09:27:35;45.33;39.80;55.10;;
76767;Laerm;65707;52.362;6.588;2023-08-08T09:30:04;54.00;40.48;71.01;;
76767;Laerm;65707;52.362;6.588;2023-08-08T09:32:32;47.88;41.53;63.34;;
76767;Laerm;65707;52.362;6.588;2023-08-08T09:34:59;49.82;42.01;73.93;;
76767;Laerm;65707;52.362;6.588;2023-08-08T09:37:27;52.12;41.63;74.76;;
76767;Laerm;65707;52.362;6.588;2023-08-08T09:39:57;59.09;42.71;81.38;;
76767;Laerm;65707;52.362;6.588;2023-08-08T09:42:27;58.49;41.63;75.66;;
76767;Laerm;65707;52.362;6.588;2023-08-08T09:44:56;45.83;40.13;64.78;;
76767;Laerm;65707;52.362;6.588;2023-08-08T09:47:24;45.13;40.39;64.94;;
76767;Laerm;65707;52.362;6.588;2023-08-08T09:49:58;65.50;41.31;89.81;;
76767;Laerm;65707;52.362;6.588;2023-08-08T09:52:27;58.74;46.08;78.56;;
76767;Laerm;65707;52.362;6.588;2023-08-08T09:54:55;56.17;43.62;73.49;;
76767;Laerm;65707;52.362;6.588;2023-08-08T09:57:23;56.73;45.10;74.71;;
76767;Laerm;65707;52.362;6.588;2023-08-08T09:59:52;56.10;44.15;69.87;;
76767;Laerm;65707;52.362;6.588;2023-08-08T10:02:19;50.34;44.18;68.45;;
76767;Laerm;65707;52.362;6.588;2023-08-08T10:04:47;51.36;43.41;64.32;;
76767;Laerm;65707;52.362;6.588;2023-08-08T10:07:14;47.48;42.48;61.82;;
76767;Laerm;65707;52.362;6.588;2023-08-08T10:09:41;65.27;43.29;80.37;;
76767;Laerm;65707;52.362;6.588;2023-08-08T10:12:11;60.74;42.57;79.29;;
76767;Laerm;65707;52.362;6.588;2023-08-08T10:14:42;61.97;41.27;81.40;;
76767;Laerm;65707;52.362;6.588;2023-08-08T10:17:15;45.97;41.12;65.47;;
76767;Laerm;65707;52.362;6.588;2023-08-08T10:19:51;57.20;42.56;78.76;;
76767;Laerm;65707;52.362;6.588;2023-08-08T10:22:22;49.89;40.24;74.10;;
76767;Laerm;65707;52.362;6.588;2023-08-08T10:24:52;56.21;40.43;77.75;;
76767;Laerm;65707;52.362;6.588;2023-08-08T10:27:32;48.84;40.98;67.99;;
76767;Laerm;65707;52.362;6.588;2023-08-08T10:30:04;54.25;42.02;69.42;;
76767;Laerm;65707;52.362;6.588;2023-08-08T10:32:41;50.17;43.42;71.55;;
76767;Laerm;65707;52.362;6.588;2023-08-08T10:35:09;55.13;43.12;78.32;;
76767;Laerm;65707;52.362;6.588;2023-08-08T10:37:38;56.90;43.28;78.01;;
76767;Laerm;65707;52.362;6.588;2023-08-08T10:40:07;47.15;40.31;62.71;;
76767;Laerm;65707;52.362;6.588;2023-08-08T10:42:43;50.34;42.37;72.45;;
76767;Laerm;65707;52.362;6.588;2023-08-08T10:45:13;65.61;44.10;83.42;;
76767;Laerm;65707;52.362;6.588;2023-08-08T10:47:43;54.79;43.30;83.08;;
76767;Laerm;65707;52.362;6.588;2023-08-08T10:50:13;57.42;43.80;79.47;;
76767;Laerm;65707;52.362;6.588;2023-08-08T10:52:54;63.89;43.91;82.12;;
76767;Laerm;65707;52.362;6.588;2023-08-08T10:55:23;56.91;43.92;75.80;;
76767;Laerm;65707;52.362;6.588;2023-08-08T10:57:55;49.65;43.22;67.66;;
76767;Laerm;65707;52.362;6.588;2023-08-08T11:00:25;55.36;40.60;75.76;;
76767;Laerm;65707;52.362;6.588;2023-08-08T11:02:54;48.92;41.87;68.46;;
76767;Laerm;65707;52.362;6.588;2023-08-08T11:05:22;49.50;40.48;72.60;;
76767;Laerm;65707;52.362;6.588;2023-08-08T11:07:50;57.84;42.28;74.64;;
76767;Laerm;65707;52.362;6.588;2023-08-08T11:10:17;58.20;42.39;78.36;;
76767;Laerm;65707;52.362;6.588;2023-08-08T11:12:55;51.24;43.60;82.33;;
76767;Laerm;65707;52.362;6.588;2023-08-08T11:15:22;47.56;41.75;66.30;;
76767;Laerm;65707;52.362;6.588;2023-08-08T11:17:50;47.12;41.28;66.91;;
76767;Laerm;65707;52.362;6.588;2023-08-08T11:20:19;56.04;41.16;77.22;;
76767;Laerm;65707;52.362;6.588;2023-08-08T11:22:52;49.61;41.24;74.83;;
76767;Laerm;65707;52.362;6.588;2023-08-08T11:25:19;58.74;42.00;85.86;;
76767;Laerm;65707;52.362;6.588;2023-08-08T11:27:50;46.79;41.25;67.48;;
76767;Laerm;65707;52.362;6.588;2023-08-08T11:30:18;55.41;42.66;72.36;;
76767;Laerm;65707;52.362;6.588;2023-08-08T11:32:46;46.45;40.90;73.54;;
76767;Laerm;65707;52.362;6.588;2023-08-08T11:35:16;46.66;39.09;68.42;;
76767;Laerm;65707;52.362;6.588;2023-08-08T11:37:46;54.53;40.77;73.04;;
76767;Laerm;65707;52.362;6.588;2023-08-08T11:40:14;57.62;41.57;76.83;;
76767;Laerm;65707;52.362;6.588;2023-08-08T11:42:41;51.45;40.55;71.63;;
76767;Laerm;65707;52.362;6.588;2023-08-08T11:45:10;68.79;41.91;81.16;;
76767;Laerm;65707;52.362;6.588;2023-08-08T11:47:38;55.85;41.64;76.02;;
76767;Laerm;65707;52.362;6.588;2023-08-08T11:50:08;57.72;42.37;80.78;;
76767;Laerm;65707;52.362;6.588;2023-08-08T11:52:36;54.50;42.12;77.97;;
76767;Laerm;65707;52.362;6.588;2023-08-08T11:55:09;54.93;42.50;74.68;;
76767;Laerm;65707;52.362;6.588;2023-08-08T11:57:37;57.50;41.94;79.50;;
76767;Laerm;65707;52.362;6.588;2023-08-08T12:00:05;57.50;45.43;78.68;;
76767;Laerm;65707;52.362;6.588;2023-08-08T12:02:33;55.67;45.22;78.94;;
76767;Laerm;65707;52.362;6.588;2023-08-08T12:05:04;57.17;44.79;83.34;;
76767;Laerm;65707;52.362;6.588;2023-08-08T12:07:32;58.45;45.02;79.53;;
76767;Laerm;65707;52.362;6.588;2023-08-08T12:09:59;56.35;43.79;75.58;;
76767;Laerm;65707;52.362;6.588;2023-08-08T12:12:28;58.85;42.32;80.75;;
76767;Laerm;65707;52.362;6.588;2023-08-08T12:14:56;67.24;45.89;81.70;;
76767;Laerm;65707;52.362;6.588;2023-08-08T12:17:23;54.74;44.29;78.80;;
76767;Laerm;65707;52.362;6.588;2023-08-08T12:19:50;60.91;42.38;80.16;;
76767;Laerm;65707;52.362;6.588;2023-08-08T12:22:17;49.94;42.36;68.79;;
76767;Laerm;65707;52.362;6.588;2023-08-08T12:24:44;57.86;42.58;77.67;;
76767;Laerm;65707;52.362;6.588;2023-08-08T12:27:10;51.64;40.79;73.46;;
76767;Laerm;65707;52.362;6.588;2023-08-08T12:29:38;54.21;40.36;69.61;;
76767;Laerm;65707;52.362;6.588;2023-08-08T12:32:05;48.69;41.63;72.50;;
76767;Laerm;65707;52.362;6.588;2023-08-08T12:34:34;53.13;42.85;77.60;;
76767;Laerm;65707;52.362;6.588;2023-08-08T12:37:01;58.88;43.83;86.36;;
76767;Laerm;65707;52.362;6.588;2023-08-08T12:39:28;63.88;45.67;79.44;;
76767;Laerm;65707;52.362;6.588;2023-08-08T12:41:55;59.41;43.25;79.43;;
76767;Laerm;65707;52.362;6.588;2023-08-08T12:44:22;62.71;44.08;79.62;;
76767;Laerm;65707;52.362;6.588;2023-08-08T12:46:50;55.37;46.19;76.96;;
76767;Laerm;65707;52.362;6.588;2023-08-08T12:49:17;58.63;42.68;80.35;;
76767;Laerm;65707;52.362;6.588;2023-08-08T12:51:43;54.20;45.12;75.03;;
76767;Laerm;65707;52.362;6.588;2023-08-08T12:54:10;57.26;43.02;84.06;;
76767;Laerm;65707;52.362;6.588;2023-08-08T12:56:37;54.99;42.82;74.08;;
76767;Laerm;65707;52.362;6.588;2023-08-08T12:59:04;52.78;41.47;70.58;;
76767;Laerm;65707;52.362;6.588;2023-08-08T13:01:31;51.49;42.72;67.72;;
76767;Laerm;65707;52.362;6.588;2023-08-08T13:03:59;54.32;43.22;78.76;;
76767;Laerm;65707;52.362;6.588;2023-08-08T13:06:25;59.01;43.75;84.65;;
76767;Laerm;65707;52.362;6.588;2023-08-08T13:08:52;60.12;45.24;80.62;;
76767;Laerm;65707;52.362;6.588;2023-08-08T13:11:19;57.08;41.75;76.24;;
76767;Laerm;65707;52.362;6.588;2023-08-08T13:13:46;56.06;42.44;79.13;;
76767;Laerm;65707;52.362;6.588;2023-08-08T13:16:12;49.58;41.90;68.09;;
76767;Laerm;65707;52.362;6.588;2023-08-08T13:18:39;63.84;43.01;80.35;;
76767;Laerm;65707;52.362;6.588;2023-08-08T13:21:07;60.91;43.89;81.54;;
76767;Laerm;65707;52.362;6.588;2023-08-08T13:23:35;60.09;42.67;79.88;;
76767;Laerm;65707;52.362;6.588;2023-08-08T13:26:02;54.53;42.54;77.19;;
76767;Laerm;65707;52.362;6.588;2023-08-08T13:28:30;50.32;42.82;71.79;;
76767;Laerm;65707;52.362;6.588;2023-08-08T13:30:57;54.07;42.02;73.60;;
76767;Laerm;65707;52.362;6.588;2023-08-08T13:33:23;55.67;42.98;76.57;;
76767;Laerm;65707;52.362;6.588;2023-08-08T13:35:50;55.36;42.10;83.74;;
76767;Laerm;65707;52.362;6.588;2023-08-08T13:38:18;57.28;43.23;82.26;;
76767;Laerm;65707;52.362;6.588;2023-08-08T13:40:46;62.03;45.38;81.67;;
76767;Laerm;65707;52.362;6.588;2023-08-08T13:43:12;53.36;42.75;73.28;;
76767;Laerm;65707;52.362;6.588;2023-08-08T13:45:39;72.47;44.68;86.77;;
76767;Laerm;65707;52.362;6.588;2023-08-08T13:48:06;57.63;43.62;78.89;;